Time;durP1;ratioP1;P1;durP2;ratioP2;P2;SDS_P1;SDS_P2;PMS_P1;PMS_P2;Temp;Humidity;BMP_temperature;BMP_pressure;BME280_temperature;BME280_humidity;BME280_pressure;Samples;Min_cycle;Max_cycle;Signal;HPM_P1;HPM_P2
2022/07/24 00:00:05;;;;;;;;;;;;;;;18.59;100.00;-25590.50;5015647;28;19921;-81
2022/07/24 00:02:31;;;;;;;;;;;;;;;18.64;100.00;-25591.78;5013695;28;19921;-82
2022/07/24 00:04:56;;;;;;;;;;;;;;;18.56;100.00;-25589.47;5014434;28;20278;-83
2022/07/24 00:07:26;;;;;;;;;;;;;;;18.55;100.00;-25589.19;5049493;28;19971;-78
2022/07/24 00:09:51;;;;;;;;;;;;;;;18.59;100.00;-25590.50;5021370;28;19913;-79
2022/07/24 00:12:17;;;;;;;;;;;;;;;18.63;100.00;-25591.66;5056141;28;19913;-79
2022/07/24 00:15:00;;;;;;;;;;;;;;;18.65;100.00;-25592.09;5015483;28;19917;-82
2022/07/24 00:17:25;;;;;;;;;;;;;;;18.64;100.00;-25591.94;5017902;28;19913;-79
2022/07/24 00:19:51;;;;;;;;;;;;;;;18.53;100.00;-25588.75;5059538;28;19924;-79
2022/07/24 00:22:16;;;;;;;;;;;;;;;18.54;100.00;-25588.91;5058099;28;19913;-78
2022/07/24 00:24:42;;;;;;;;;;;;;;;18.54;100.00;-25588.91;5020776;28;19917;-84
2022/07/24 00:27:08;;;;;;;;;;;;;;;18.52;100.00;-25588.47;5012907;28;19913;-82
2022/07/24 00:29:33;;;;;;;;;;;;;;;18.47;100.00;-25587.03;5046035;28;19920;-83
2022/07/24 00:31:58;;;;;;;;;;;;;;;18.51;100.00;-25588.19;5046041;28;19921;-80
2022/07/24 00:34:24;;;;;;;;;;;;;;;18.52;100.00;-25588.31;5045925;28;20302;-85
2022/07/24 00:36:50;;;;;;;;;;;;;;;18.46;100.00;-25586.88;5044378;28;19976;-81
2022/07/24 00:39:15;;;;;;;;;;;;;;;18.45;100.00;-25586.44;5046273;28;19913;-85
2022/07/24 00:41:40;;;;;;;;;;;;;;;18.39;100.00;-25584.72;5046350;28;19920;-85
2022/07/24 00:44:06;;;;;;;;;;;;;;;18.40;100.00;-25585.00;5045941;28;19913;-84
2022/07/24 00:46:32;;;;;;;;;;;;;;;18.36;100.00;-25583.84;5013382;28;20028;-78
2022/07/24 00:48:58;;;;;;;;;;;;;;;18.29;100.00;-25581.97;5013601;28;20374;-84
2022/07/24 00:51:23;;;;;;;;;;;;;;;18.27;100.00;-25581.53;5013304;28;20012;-81
2022/07/24 00:53:49;;;;;;;;;;;;;;;18.33;100.00;-25582.97;5046364;28;19914;-83
2022/07/24 00:56:15;;;;;;;;;;;;;;;18.30;100.00;-25582.25;5012826;28;20432;-83
2022/07/24 00:58:40;;;;;;;;;;;;;;;18.33;100.00;-25582.97;5014300;28;19913;-82
2022/07/24 01:01:05;;;;;;;;;;;;;;;18.30;100.00;-25582.41;5045794;28;19913;-77
2022/07/24 01:03:32;;;;;;;;;;;;;;;18.24;100.00;-25580.66;5014032;28;19913;-82
2022/07/24 01:05:58;;;;;;;;;;;;;;;18.22;100.00;-25579.94;5013467;28;19920;-83
2022/07/24 01:08:24;;;;;;;;;;;;;;;18.13;100.00;-25577.47;5013339;28;19913;-83
2022/07/24 01:10:49;;;;;;;;;;;;;;;18.17;100.00;-25578.50;5046077;28;19913;-81
2022/07/24 01:13:15;;;;;;;;;;;;;;;18.17;100.00;-25578.50;5046021;28;19917;-83
2022/07/24 01:15:41;;;;;;;;;;;;;;;18.22;100.00;-25579.94;5046341;28;19921;-82
2022/07/24 01:18:06;;;;;;;;;;;;;;;18.18;100.00;-25578.91;5048500;28;19920;-83
2022/07/24 01:20:35;;;;;;;;;;;;;;;18.16;100.00;-25578.34;5033060;28;20416;-78
2022/07/24 01:23:00;;;;;;;;;;;;;;;18.12;100.00;-25577.19;5013870;28;19990;-78
2022/07/24 01:25:26;;;;;;;;;;;;;;;18.12;100.00;-25577.19;5015457;28;19948;-77
2022/07/24 01:27:51;;;;;;;;;;;;;;;18.07;100.00;-25575.72;5033305;28;19913;-76
2022/07/24 01:30:16;;;;;;;;;;;;;;;18.06;100.00;-25575.44;5015251;28;20011;-78
2022/07/24 01:32:42;;;;;;;;;;;;;;;18.14;100.00;-25577.63;5015450;28;20361;-77
2022/07/24 01:35:07;;;;;;;;;;;;;;;18.13;100.00;-25577.47;5015504;28;20024;-79
2022/07/24 01:37:32;;;;;;;;;;;;;;;18.14;100.00;-25577.63;5015678;28;19921;-78
2022/07/24 01:39:57;;;;;;;;;;;;;;;18.16;100.00;-25578.19;5015587;28;20354;-79
2022/07/24 01:42:25;;;;;;;;;;;;;;;18.18;100.00;-25578.78;5015758;28;19924;-76
2022/07/24 01:44:50;;;;;;;;;;;;;;;18.17;100.00;-25578.63;5016365;28;19921;-78
2022/07/24 01:47:15;;;;;;;;;;;;;;;18.18;100.00;-25578.91;5019594;28;20214;-78
2022/07/24 01:49:42;;;;;;;;;;;;;;;18.18;100.00;-25578.78;5018590;28;19920;-78
2022/07/24 01:52:08;;;;;;;;;;;;;;;18.13;100.00;-25577.47;5019282;28;20354;-81
2022/07/24 01:54:34;;;;;;;;;;;;;;;18.13;100.00;-25577.47;5019610;28;19913;-77
2022/07/24 01:56:59;;;;;;;;;;;;;;;18.19;100.00;-25579.22;5019152;28;19992;-78
2022/07/24 01:59:25;;;;;;;;;;;;;;;18.18;100.00;-25578.91;5019946;28;20007;-78
2022/07/24 02:01:50;;;;;;;;;;;;;;;18.16;100.00;-25578.34;5019020;28;19913;-84
2022/07/24 02:04:15;;;;;;;;;;;;;;;18.18;100.00;-25578.78;5019129;28;20353;-79
2022/07/24 02:06:41;;;;;;;;;;;;;;;18.19;100.00;-25577.13;5018502;28;19917;-83
2022/07/24 02:09:06;;;;;;;;;;;;;;;18.17;100.00;-24916.03;5018829;28;19971;-81
2022/07/24 02:11:31;;;;;;;;;;;;;;;18.14;100.00;-23924.03;5018766;28;19919;-79
2022/07/24 02:13:59;;;;;;;;;;;;;;;18.15;100.00;-23263.22;5035843;28;19919;-77
2022/07/24 02:16:25;;;;;;;;;;;;;;;18.09;100.00;-22600.88;5019124;28;19959;-83
2022/07/24 02:18:50;;;;;;;;;;;;;;;18.10;100.00;-22601.09;5015416;28;19925;-79
2022/07/24 02:21:15;;;;;;;;;;;;;;;18.12;100.00;-22601.72;5048105;28;19914;-80
2022/07/24 02:23:55;;;;;;;;;;;;;;;18.19;100.00;-21941.97;5049027;28;20008;-78
2022/07/24 02:26:20;;;;;;;;;;;;;;;18.15;100.00;-21279.75;5015152;28;20393;-80
2022/07/24 02:28:45;;;;;;;;;;;;;;;18.14;100.00;-20618.28;5015574;28;19913;-79
2022/07/24 02:31:11;;;;;;;;;;;;;;;18.16;100.00;-19957.19;5048656;28;19913;-81
2022/07/24 02:33:37;;;;;;;;;;;;;;;18.18;100.00;-19626.66;5048173;28;19913;-82
2022/07/24 02:36:03;;;;;;;;;;;;;;;18.14;100.00;-19626.00;5048161;28;19925;-82
2022/07/24 02:38:28;;;;;;;;;;;;;;;18.14;100.00;-19295.06;5015221;28;19914;-77
2022/07/24 02:40:53;;;;;;;;;;;;;;;18.10;100.00;-19956.09;5047985;28;19964;-78
2022/07/24 02:43:22;;;;;;;;;;;;;;;18.09;100.00;-20617.22;5047928;28;19921;-84
2022/07/24 02:45:47;;;;;;;;;;;;;;;18.03;100.00;-21938.50;5048657;28;20016;-80
2022/07/24 02:48:12;;;;;;;;;;;;;;;18.02;100.00;-23921.00;5048311;28;19968;-77
2022/07/24 02:50:38;;;;;;;;;;;;;;;18.06;100.00;-25573.66;5047953;28;20370;-79
2022/07/24 02:53:08;;;;;;;;;;;;;;;18.05;100.00;-25575.31;5047776;28;19920;-79
2022/07/24 02:55:34;;;;;;;;;;;;;;;18.02;100.00;-25574.28;5047381;28;19979;-77
2022/07/24 02:57:59;;;;;;;;;;;;;;;17.98;100.00;-25573.13;5013799;28;20289;-76
2022/07/24 03:00:24;;;;;;;;;;;;;;;17.94;100.00;-25572.13;5014790;28;19952;-82
2022/07/24 03:02:51;;;;;;;;;;;;;;;17.90;100.00;-25570.97;5047278;28;19992;-79
2022/07/24 03:05:16;;;;;;;;;;;;;;;17.89;100.00;-25570.81;5014313;28;20354;-81
2022/07/24 03:07:42;;;;;;;;;;;;;;;17.86;100.00;-25569.94;5015826;28;19963;-82
2022/07/24 03:10:08;;;;;;;;;;;;;;;17.85;100.00;-25569.50;5013975;28;19913;-79
2022/07/24 03:12:35;;;;;;;;;;;;;;;17.82;100.00;-25568.78;5014344;28;19964;-84
2022/07/24 03:15:00;;;;;;;;;;;;;;;17.81;100.00;-25568.50;5014364;28;19909;-80
2022/07/24 03:17:26;;;;;;;;;;;;;;;17.81;100.00;-25568.50;5014637;28;19992;-82
2022/07/24 03:19:51;;;;;;;;;;;;;;;17.75;100.00;-25566.91;5033240;28;20016;-81
2022/07/24 03:22:16;;;;;;;;;;;;;;;17.74;100.00;-25566.59;5017408;28;19920;-84
2022/07/24 03:24:48;;;;;;;;;;;;;;;17.71;100.00;-25565.59;5035447;28;19917;-82
2022/07/24 03:27:13;;;;;;;;;;;;;;;17.68;100.00;-25564.72;5017725;28;19917;-82
2022/07/24 03:29:39;;;;;;;;;;;;;;;17.66;100.00;-25564.28;5017566;28;19919;-82
2022/07/24 03:32:04;;;;;;;;;;;;;;;17.63;100.00;-25563.28;5017381;28;19913;-83
2022/07/24 03:34:31;;;;;;;;;;;;;;;17.65;100.00;-25563.84;5017657;28;19921;-80
2022/07/24 03:36:57;;;;;;;;;;;;;;;17.56;100.00;-25561.41;5034590;28;19959;-76
2022/07/24 03:39:22;;;;;;;;;;;;;;;17.54;100.00;-25560.97;5017511;28;19920;-83
2022/07/24 03:41:47;;;;;;;;;;;;;;;17.57;100.00;-25561.69;5017713;28;19917;-79
2022/07/24 03:44:17;;;;;;;;;;;;;;;17.51;100.00;-25559.94;5017517;28;19916;-84
2022/07/24 03:46:42;;;;;;;;;;;;;;;17.45;100.00;-25558.19;5018150;28;19913;-82
2022/07/24 03:49:07;;;;;;;;;;;;;;;17.51;100.00;-25560.09;5018148;28;19952;-84
2022/07/24 03:51:34;;;;;;;;;;;;;;;17.44;100.00;-25557.91;5016474;28;20377;-82
2022/07/24 03:54:02;;;;;;;;;;;;;;;17.40;100.00;-25556.91;5016405;28;19913;-80
2022/07/24 03:56:28;;;;;;;;;;;;;;;17.39;100.00;-25556.75;5016978;28;20457;-78
2022/07/24 03:58:53;;;;;;;;;;;;;;;17.41;100.00;-25557.19;5016778;28;20020;-75
2022/07/24 04:01:19;;;;;;;;;;;;;;;17.40;100.00;-25557.06;5016393;28;20004;-77
2022/07/24 04:03:44;;;;;;;;;;;;;;;17.43;100.00;-25557.78;5015583;28;19913;-76
2022/07/24 04:06:09;;;;;;;;;;;;;;;17.37;100.00;-25556.03;5015339;28;20285;-76
2022/07/24 04:08:35;;;;;;;;;;;;;;;17.41;100.00;-25557.19;5015579;28;19917;-79
2022/07/24 04:11:00;;;;;;;;;;;;;;;17.36;100.00;-25555.75;5015837;28;19971;-79
2022/07/24 04:13:28;;;;;;;;;;;;;;;17.37;100.00;-25556.03;5016037;28;20453;-77
2022/07/24 04:15:53;;;;;;;;;;;;;;;17.36;100.00;-25553.81;5016078;28;19928;-77
2022/07/24 04:18:19;;;;;;;;;;;;;;;17.43;100.00;-25555.84;5010575;28;19917;-77
2022/07/24 04:20:44;;;;;;;;;;;;;;;17.40;100.00;-25225.03;5013310;28;19913;-79
2022/07/24 04:23:10;;;;;;;;;;;;;;;17.37;100.00;-24894.41;4995648;28;19948;-79
2022/07/24 04:25:36;;;;;;;;;;;;;;;17.49;100.00;-24567.44;4997025;28;19968;-80
2022/07/24 04:28:01;;;;;;;;;;;;;;;17.84;100.00;-23916.41;4996439;28;19913;-80
2022/07/24 04:30:39;;;;;;;;;;;;;;;18.91;100.00;-19971.69;5110936;27;20330;-78
2022/07/24 04:33:04;;;;;;;;;;;;;;;19.69;100.00;-8363.69;5143465;27;19920;-83
2022/07/24 04:35:31;;;;;;;;;;;;;;;20.49;100.00;10998.66;5109427;28;19928;-82
2022/07/24 04:37:56;;;;;;;;;;;;;;;21.26;100.00;51441.19;5102847;28;19916;-80
2022/07/24 04:40:21;;;;;;;;;;;;;;;22.20;100.00;148302.00;5090538;28;19969;-80
2022/07/24 04:42:53;;;;;;;;;;;;;;;22.86;100.00;148466.22;5090767;28;19920;-77
2022/07/24 04:45:18;;;;;;;;;;;;;;;23.98;100.00;148746.16;5110165;28;19959;-84
2022/07/24 04:47:43;;;;;;;;;;;;;;;24.45;100.00;148863.03;5104891;28;19923;-80
2022/07/24 04:50:09;;;;;;;;;;;;;;;24.39;100.00;148847.63;5103552;28;19920;-82
2022/07/24 04:52:34;;;;;;;;;;;;;;;23.57;100.00;148643.41;5104006;28;19943;-76
2022/07/24 04:54:59;;;;;;;;;;;;;;;23.18;100.00;148544.56;5098068;28;19917;-77
2022/07/24 04:57:24;;;;;;;;;;;;;;;23.26;100.00;148565.13;5092377;28;19962;-81
2022/07/24 04:59:50;;;;;;;;;;;;;;;23.61;100.00;148653.66;5089417;28;19950;-81
2022/07/24 05:02:15;;;;;;;;;;;;;;;23.96;100.00;148739.78;5097561;28;19938;-76
2022/07/24 05:04:42;;;;;;;;;;;;;;;24.75;100.00;148937.63;5099095;28;19916;-77
2022/07/24 05:07:07;;;;;;;;;;;;;;;24.59;100.00;148896.50;5099763;28;19916;-80
2022/07/24 05:09:33;;;;;;;;;;;;;;;23.66;100.00;148666.53;5099810;28;19927;-83
2022/07/24 05:11:58;;;;;;;;;;;;;;;22.48;100.00;148370.00;5108984;28;19995;-77
2022/07/24 05:14:25;;;;;;;;;;;;;;;22.09;100.00;148272.47;5108687;28;19916;-79
2022/07/24 05:16:50;;;;;;;;;;;;;;;21.42;100.00;148105.72;5108194;28;19920;-83
2022/07/24 05:19:16;;;;;;;;;;;;;;;21.15;100.00;148040.34;5104994;28;19927;-78
2022/07/24 05:21:41;;;;;;;;;;;;;;;20.94;100.00;147986.50;5108728;28;19965;-83
2022/07/24 05:24:06;;;;;;;;;;;;;;;20.60;100.00;147901.88;5108704;28;19923;-79
2022/07/24 05:26:32;;;;;;;;;;;;;;;20.71;100.00;147930.16;5105037;28;20336;-81
2022/07/24 05:29:01;;;;;;;;;;;;;;;20.69;100.00;147923.72;5088083;28;19931;-80
2022/07/24 05:31:26;;;;;;;;;;;;;;;21.20;100.00;148051.88;5089973;28;19977;-78
2022/07/24 05:33:53;;;;;;;;;;;;;;;21.32;100.00;148081.38;5089179;28;19916;-79
2022/07/24 05:36:18;;;;;;;;;;;;;;;21.90;100.00;148225.03;5087619;28;20352;-76
2022/07/24 05:38:44;;;;;;;;;;;;;;;21.48;100.00;148122.38;5087924;28;19962;-80
2022/07/24 05:41:11;;;;;;;;;;;;;;;21.12;100.00;148031.38;5079051;28;19916;-77
2022/07/24 05:43:36;;;;;;;;;;;;;;;20.87;100.00;147969.88;5073529;28;19916;-77
2022/07/24 05:46:02;;;;;;;;;;;;;;;20.82;100.00;147955.75;5073880;28;20315;-76
2022/07/24 05:48:27;;;;;;;;;;;;;;;21.01;100.00;148004.47;5073992;28;20278;-74
2022/07/24 05:50:53;;;;;;;;;;;;;;;21.22;100.00;148057.00;5073325;28;19981;-75
2022/07/24 05:53:19;;;;;;;;;;;;;;;21.42;100.00;148105.72;5075243;28;19917;-76
2022/07/24 05:55:44;;;;;;;;;;;;;;;21.94;100.00;148235.25;5075189;28;19916;-75
2022/07/24 05:58:10;;;;;;;;;;;;;;;22.19;100.00;148299.41;5072747;28;19943;-77
2022/07/24 06:00:35;;;;;;;;;;;;;;;22.17;100.00;148294.28;5055742;28;19920;-84
2022/07/24 06:03:00;;;;;;;;;;;;;;;22.13;100.00;148282.75;5072145;28;19917;-76
2022/07/24 06:05:25;;;;;;;;;;;;;;;22.27;100.00;148318.66;5071914;28;19924;-82
2022/07/24 06:07:50;;;;;;;;;;;;;;;22.22;100.00;148307.09;5073497;28;19918;-81
2022/07/24 06:10:17;;;;;;;;;;;;;;;21.88;100.00;148221.19;5074462;28;20442;-80
2022/07/24 06:12:42;;;;;;;;;;;;;;;21.74;100.00;148186.56;5084379;28;20315;-82
2022/07/24 06:15:08;;;;;;;;;;;;;;;21.95;100.00;148237.84;5094103;28;19916;-80
2022/07/24 06:17:33;;;;;;;;;;;;;;;22.45;100.00;148363.63;5087048;28;20403;-82
2022/07/24 06:19:58;;;;;;;;;;;;;;;22.43;100.00;148358.44;5073602;28;20394;-81
2022/07/24 06:22:24;;;;;;;;;;;;;;;22.40;100.00;148350.75;5072734;28;20392;-79
2022/07/24 06:24:49;;;;;;;;;;;;;;;22.42;100.00;148355.91;5087628;28;19960;-77
2022/07/24 06:27:14;;;;;;;;;;;;;;;22.51;100.00;148379.00;5092663;28;19920;-75
2022/07/24 06:29:40;;;;;;;;;;;;;;;22.93;100.00;148484.22;5093486;28;19920;-78
2022/07/24 06:32:06;;;;;;;;;;;;;;;22.88;100.00;148471.34;5089714;28;20361;-80
2022/07/24 06:34:31;;;;;;;;;;;;;;;23.12;100.00;148531.72;5116604;27;20054;-78
2022/07/24 06:36:57;;;;;;;;;;;;;;;23.09;100.00;148524.03;5106788;28;19990;-81
2022/07/24 06:39:22;;;;;;;;;;;;;;;23.06;100.00;148516.28;5072741;28;19963;-81
2022/07/24 06:41:48;;;;;;;;;;;;;;;23.60;100.00;148649.81;5085823;28;19916;-80
2022/07/24 06:44:15;;;;;;;;;;;;;;;23.62;100.00;148656.25;5094180;28;20482;-80
2022/07/24 06:46:40;;;;;;;;;;;;;;;23.28;100.00;148570.25;5087131;28;20361;-80
2022/07/24 06:49:06;;;;;;;;;;;;;;;22.70;100.00;148425.16;5105969;28;19923;-76
2022/07/24 06:51:31;;;;;;;;;;;;;;;22.54;100.00;148385.41;5076769;28;19962;-75
2022/07/24 06:53:56;;;;;;;;;;;;;;;22.40;100.00;148352.06;5071511;28;19955;-74
2022/07/24 06:56:21;;;;;;;;;;;;;;;22.26;100.00;148316.06;5083714;28;19920;-75
2022/07/24 06:58:47;;;;;;;;;;;;;;;22.23;100.00;148309.69;5078336;28;19917;-77
2022/07/24 07:01:12;;;;;;;;;;;;;;;22.32;100.00;148331.50;5071778;28;19933;-77
2022/07/24 07:03:39;;;;;;;;;;;;;;;22.58;100.00;148396.94;5072369;28;19916;-75
2022/07/24 07:06:05;;;;;;;;;;;;;;;22.74;100.00;148435.44;5085042;28;19958;-78
2022/07/24 07:08:31;;;;;;;;;;;;;;;22.98;100.00;148494.44;5086832;28;19919;-78
2022/07/24 07:10:57;;;;;;;;;;;;;;;22.86;100.00;148464.97;5079047;28;19928;-77
2022/07/24 07:13:23;;;;;;;;;;;;;;;23.01;100.00;148502.16;5073595;28;19936;-77
2022/07/24 07:15:48;;;;;;;;;;;;;;;23.65;100.00;148662.69;5072264;28;19923;-83
2022/07/24 07:18:14;;;;;;;;;;;;;;;23.53;100.00;148631.88;5080304;28;20337;-77
2022/07/24 07:20:39;;;;;;;;;;;;;;;23.95;100.00;148738.47;5091778;28;20019;-76
2022/07/24 07:23:06;;;;;;;;;;;;;;;25.21;100.00;149053.25;5070638;28;19986;-75
2022/07/24 07:25:31;;;;;;;;;;;;;;;25.44;100.00;149109.88;5072938;28;19917;-79
2022/07/24 07:27:56;;;;;;;;;;;;;;;25.33;100.00;149082.88;5085721;28;19917;-77
2022/07/24 07:30:22;;;;;;;;;;;;;;;25.82;100.00;149203.69;5056053;28;20358;-77
2022/07/24 07:32:48;;;;;;;;;;;;;;;26.40;100.00;149350.34;5091710;28;20006;-78
2022/07/24 07:35:13;;;;;;;;;;;;;;;26.96;100.00;149490.59;5091199;28;20296;-77
2022/07/24 07:37:38;;;;;;;;;;;;;;;27.51;100.00;149627.06;5117805;27;19924;-76
2022/07/24 07:40:04;;;;;;;;;;;;;;;27.67;100.00;149668.25;5070822;28;19920;-76
2022/07/24 07:42:30;;;;;;;;;;;;;;;27.43;100.00;149607.75;5080454;28;20015;-77
2022/07/24 07:44:56;;;;;;;;;;;;;;;27.75;100.00;149687.56;5084797;28;19920;-79
2022/07/24 07:47:21;;;;;;;;;;;;;;;28.35;100.00;149838.22;5090367;28;19924;-81
2022/07/24 07:49:46;;;;;;;;;;;;;;;29.24;100.00;150061.16;5114131;27;20308;-80
2022/07/24 07:52:12;;;;;;;;;;;;;;;28.40;100.00;149849.78;5074949;28;19927;-80
2022/07/24 07:54:40;;;;;;;;;;;;;;;29.23;100.00;150057.31;5071413;28;19917;-80
2022/07/24 07:57:05;;;;;;;;;;;;;;;29.00;100.00;150001.81;5105294;28;20288;-81
2022/07/24 07:59:30;;;;;;;;;;;;;;;28.70;100.00;149925.84;5076208;28;19920;-77
2022/07/24 08:01:56;;;;;;;;;;;;;;;28.86;100.00;149965.75;5078036;28;19916;-81
2022/07/24 08:04:21;;;;;;;;;;;;;;;28.73;100.00;149932.25;5086850;28;19924;-84
2022/07/24 08:06:46;;;;;;;;;;;;;;;29.63;100.00;150159.09;5091769;28;20273;-80
2022/07/24 08:09:12;;;;;;;;;;;;;;;29.49;100.00;150124.28;5072788;28;19965;-82
2022/07/24 08:11:37;;;;;;;;;;;;;;;29.50;100.00;150125.56;5071522;28;19922;-82
2022/07/24 08:14:05;;;;;;;;;;;;;;;28.80;100.00;149950.31;5071215;28;19921;-82
2022/07/24 08:16:30;;;;;;;;;;;;;;;29.17;100.00;150043.06;5086171;28;19976;-79
2022/07/24 08:18:56;;;;;;;;;;;;;;;29.10;100.00;150025.00;5074831;28;19924;-78
2022/07/24 08:21:22;;;;;;;;;;;;;;;29.12;100.00;150030.19;5070997;28;19967;-78
2022/07/24 08:23:48;;;;;;;;;;;;;;;29.31;100.00;150077.91;5070905;28;20346;-79
2022/07/24 08:26:14;;;;;;;;;;;;;;;28.77;100.00;149942.56;5070702;28;19921;-79
2022/07/24 08:28:39;;;;;;;;;;;;;;;29.08;100.00;150021.13;5071644;28;20073;-76
2022/07/24 08:31:05;;;;;;;;;;;;;;;29.21;100.00;150052.13;5086624;28;19947;-77
2022/07/24 08:33:37;;;;;;;;;;;;;;;29.56;100.00;150139.75;5091096;28;20293;-79
2022/07/24 08:36:02;;;;;;;;;;;;;;;28.92;100.00;149979.94;5091311;28;19986;-78
2022/07/24 08:38:28;;;;;;;;;;;;;;;28.51;100.00;149878.16;5091716;28;19928;-79
2022/07/24 08:40:54;;;;;;;;;;;;;;;28.66;100.00;149915.53;5091390;28;20395;-78
2022/07/24 08:43:19;;;;;;;;;;;;;;;28.37;100.00;149842.06;5091294;28;19924;-81
2022/07/24 08:45:44;;;;;;;;;;;;;;;28.83;100.00;149958.03;5091154;28;19917;-80
2022/07/24 08:48:10;;;;;;;;;;;;;;;29.31;100.00;150079.16;5090651;28;19923;-80
2022/07/24 08:50:37;;;;;;;;;;;;;;;29.66;100.00;150166.81;5092017;28;19916;-80
2022/07/24 08:53:03;;;;;;;;;;;;;;;29.52;100.00;150130.69;5089291;28;20006;-77
2022/07/24 08:55:29;;;;;;;;;;;;;;;28.94;100.00;149985.09;5077798;28;20111;-78
2022/07/24 08:58:00;;;;;;;;;;;;;;;28.91;100.00;149978.63;5070733;28;19975;-78
2022/07/24 09:00:27;;;;;;;;;;;;;;;29.51;100.00;150129.44;5078229;28;19920;-79
2022/07/24 09:02:52;;;;;;;;;;;;;;;29.19;100.00;150048.19;5090492;28;20368;-78
2022/07/24 09:05:18;;;;;;;;;;;;;;;29.17;100.00;150044.34;5087939;28;19916;-77
2022/07/24 09:07:43;;;;;;;;;;;;;;;29.50;100.00;150125.56;5069859;28;19916;-78
2022/07/24 09:10:16;;;;;;;;;;;;;;;28.16;100.00;149790.56;5075038;28;20418;-77
2022/07/24 09:12:45;;;;;;;;;;;;;;;27.91;100.00;149727.47;5053850;28;19928;-80
2022/07/24 09:15:15;;;;;;;;;;;;;;;27.58;100.00;149645.09;5084637;28;19928;-79
2022/07/24 09:17:47;;;;;;;;;;;;;;;27.65;100.00;149661.81;5074642;28;20395;-78
2022/07/24 09:20:12;;;;;;;;;;;;;;;26.86;100.00;149464.84;5074342;28;19959;-78
2022/07/24 09:22:40;;;;;;;;;;;;;;;27.62;100.00;149655.34;5054886;28;19967;-79
2022/07/24 09:25:07;;;;;;;;;;;;;;;28.02;100.00;149754.53;5054628;28;19913;-78
2022/07/24 09:27:33;;;;;;;;;;;;;;;28.32;100.00;149829.22;5053582;28;19924;-77
2022/07/24 09:29:58;;;;;;;;;;;;;;;28.51;100.00;149876.84;5084338;28;20010;-78
2022/07/24 09:32:24;;;;;;;;;;;;;;;28.92;100.00;149981.22;5093857;28;20344;-79
2022/07/24 09:34:51;;;;;;;;;;;;;;;29.06;100.00;150014.72;5088817;28;20368;-79
2022/07/24 09:37:16;;;;;;;;;;;;;;;28.33;100.00;149831.81;5093582;28;19924;-78
2022/07/24 09:39:41;;;;;;;;;;;;;;;28.34;100.00;149835.66;5128357;27;20352;-75
2022/07/24 09:42:07;;;;;;;;;;;;;;;28.78;100.00;149945.16;5082150;28;19928;-78
2022/07/24 09:44:34;;;;;;;;;;;;;;;28.81;100.00;149952.91;5087744;28;20325;-77
2022/07/24 09:46:59;;;;;;;;;;;;;;;29.25;100.00;150063.72;5128386;27;19927;-78
2022/07/24 09:49:25;;;;;;;;;;;;;;;29.32;100.00;150080.50;5127379;27;20671;-78
2022/07/24 09:52:12;;;;;;;;;;;;;;;29.00;100.00;150001.81;5127243;27;19916;-78
2022/07/24 09:54:40;;;;;;;;;;;;;;;28.82;100.00;149955.44;5128514;27;19923;-76
2022/07/24 09:57:23;;;;;;;;;;;;;;;28.69;100.00;149921.97;5127261;27;19976;-76
2022/07/24 09:59:52;;;;;;;;;;;;;;;28.70;100.00;149925.84;5128276;27;20372;-77
2022/07/24 10:02:19;;;;;;;;;;;;;;;28.52;100.00;149879.44;5127560;27;19970;-77
2022/07/24 10:04:45;;;;;;;;;;;;;;;28.82;100.00;149955.44;5094346;28;19916;-78
2022/07/24 10:07:11;;;;;;;;;;;;;;;28.34;100.00;149834.34;5127561;27;20054;-77
2022/07/24 10:09:39;;;;;;;;;;;;;;;28.52;100.00;149880.72;5127591;27;19916;-76
2022/07/24 10:12:10;;;;;;;;;;;;;;;27.99;100.00;149746.81;5126841;27;20284;-78
2022/07/24 10:14:36;;;;;;;;;;;;;;;28.28;100.00;149820.22;5128012;27;20416;-76
2022/07/24 10:17:05;;;;;;;;;;;;;;;28.61;100.00;149902.66;5093727;28;19912;-76
2022/07/24 10:19:37;;;;;;;;;;;;;;;28.22;100.00;149804.75;5127759;27;19916;-77
2022/07/24 10:22:08;;;;;;;;;;;;;;;28.56;100.00;149891.03;5128000;27;19916;-81
2022/07/24 10:24:34;;;;;;;;;;;;;;;28.72;100.00;149931.00;5127865;27;20520;-77
2022/07/24 10:27:02;;;;;;;;;;;;;;;28.69;100.00;149921.97;5127357;27;19977;-76
2022/07/24 10:29:28;;;;;;;;;;;;;;;28.41;100.00;149853.66;5127118;27;19920;-76
2022/07/24 10:31:55;;;;;;;;;;;;;;;28.72;100.00;149929.72;5093548;28;19963;-76
2022/07/24 10:34:23;;;;;;;;;;;;;;;28.92;100.00;149981.22;5126562;27;19944;-76
2022/07/24 10:37:08;;;;;;;;;;;;;;;28.90;100.00;149976.09;5125923;27;19979;-75
2022/07/24 10:39:42;;;;;;;;;;;;;;;28.57;100.00;149892.28;5124918;27;19923;-74
2022/07/24 10:42:08;;;;;;;;;;;;;;;28.58;100.00;149896.22;5125761;27;19923;-75
2022/07/24 10:44:33;;;;;;;;;;;;;;;28.83;100.00;149959.31;5126173;27;19912;-76
2022/07/24 10:47:01;;;;;;;;;;;;;;;28.83;100.00;149958.03;5124998;27;19942;-76
2022/07/24 10:49:34;;;;;;;;;;;;;;;28.82;100.00;149956.75;5126159;27;19919;-76
2022/07/24 10:52:02;;;;;;;;;;;;;;;28.65;100.00;149914.25;5125699;27;20292;-75
2022/07/24 10:54:27;;;;;;;;;;;;;;;28.86;100.00;149964.50;5125511;27;20385;-76
2022/07/24 10:56:52;;;;;;;;;;;;;;;28.87;100.00;149968.34;5125907;27;19916;-75
2022/07/24 10:59:31;;;;;;;;;;;;;;;28.65;100.00;149912.94;5124905;27;19916;-75
2022/07/24 11:01:56;;;;;;;;;;;;;;;28.42;100.00;149854.97;5125426;27;19927;-77
2022/07/24 11:04:22;;;;;;;;;;;;;;;28.69;100.00;149921.97;5125826;27;20000;-77
2022/07/24 11:06:52;;;;;;;;;;;;;;;28.80;100.00;149950.31;5124746;27;19951;-76
2022/07/24 11:09:18;;;;;;;;;;;;;;;28.56;100.00;149891.03;5125323;27;19919;-74
2022/07/24 11:11:53;;;;;;;;;;;;;;;28.68;100.00;149919.41;5125997;27;19916;-78
2022/07/24 11:14:38;;;;;;;;;;;;;;;28.97;100.00;149994.09;5125397;27;19962;-79
2022/07/24 11:17:22;;;;;;;;;;;;;;;29.26;100.00;150065.03;5080652;28;20334;-81
2022/07/24 11:19:48;;;;;;;;;;;;;;;28.94;100.00;149985.09;5126658;27;19982;-81
2022/07/24 11:22:13;;;;;;;;;;;;;;;28.94;100.00;149986.34;5125602;27;19959;-79
2022/07/24 11:24:40;;;;;;;;;;;;;;;28.74;100.00;149934.84;5126637;27;19982;-80
2022/07/24 11:27:07;;;;;;;;;;;;;;;28.89;100.00;149973.50;5125981;27;19917;-77
2022/07/24 11:29:35;;;;;;;;;;;;;;;29.01;100.00;150003.13;5124240;27;20000;-77
2022/07/24 11:32:08;;;;;;;;;;;;;;;28.97;100.00;149992.81;5124236;27;19920;-76
2022/07/24 11:34:35;;;;;;;;;;;;;;;29.21;100.00;150053.44;5125211;27;19919;-77
2022/07/24 11:37:01;;;;;;;;;;;;;;;29.10;100.00;150025.00;5124753;27;19916;-76
2022/07/24 11:39:28;;;;;;;;;;;;;;;28.90;100.00;149976.09;5124438;27;19964;-77
2022/07/24 11:41:55;;;;;;;;;;;;;;;28.97;100.00;149994.09;5124340;27;20020;-76
2022/07/24 11:44:23;;;;;;;;;;;;;;;28.98;100.00;149995.41;5092221;28;19913;-75
2022/07/24 11:46:49;;;;;;;;;;;;;;;28.98;100.00;149996.69;5126489;27;20036;-76
2022/07/24 11:49:15;;;;;;;;;;;;;;;29.07;100.00;150017.28;5125635;27;20058;-78
2022/07/24 11:51:43;;;;;;;;;;;;;;;29.15;100.00;150037.91;5126211;27;19989;-75
2022/07/24 11:54:13;;;;;;;;;;;;;;;29.04;100.00;150010.88;5125846;27;19944;-77
2022/07/24 11:56:39;;;;;;;;;;;;;;;29.23;100.00;150057.31;5125734;27;19949;-76
2022/07/24 11:59:04;;;;;;;;;;;;;;;29.18;100.00;150045.66;5125365;27;19962;-77
2022/07/24 12:01:30;;;;;;;;;;;;;;;29.56;100.00;150141.03;5091884;28;20022;-77
2022/07/24 12:03:59;;;;;;;;;;;;;;;29.44;100.00;150111.38;5125528;27;20006;-77
2022/07/24 12:06:25;;;;;;;;;;;;;;;29.40;100.00;150101.09;5126238;27;19916;-76
2022/07/24 12:08:50;;;;;;;;;;;;;;;29.34;100.00;150085.63;5125852;27;20019;-76
2022/07/24 12:11:20;;;;;;;;;;;;;;;29.08;100.00;150019.88;5125140;27;20053;-76
2022/07/24 12:13:45;;;;;;;;;;;;;;;29.15;100.00;150039.19;5125767;27;19924;-76
2022/07/24 12:16:10;;;;;;;;;;;;;;;29.18;100.00;150046.94;5092053;28;20027;-77
2022/07/24 12:18:36;;;;;;;;;;;;;;;29.26;100.00;150065.03;5125627;27;19916;-76
2022/07/24 12:21:02;;;;;;;;;;;;;;;29.23;100.00;150057.31;5092082;28;19948;-76
2022/07/24 12:23:31;;;;;;;;;;;;;;;29.32;100.00;150081.75;5125497;27;19916;-76